sensor_id;sensor_type;location;lat;lon;timestamp;pressure;altitude;pressure_sealevel;temperature;humidity
82418;BME280;72059;53.734;10.260;2023-09-19T00:01:58;99810.77;;;15.48;83.82
82418;BME280;72059;53.734;10.260;2023-09-19T00:04:25;99812.91;;;15.52;83.70
82418;BME280;72059;53.734;10.260;2023-09-19T00:06:55;99820.28;;;15.57;83.54
82418;BME280;72059;53.734;10.260;2023-09-19T00:09:22;99819.83;;;15.68;83.14
82418;BME280;72059;53.734;10.260;2023-09-19T00:11:51;99812.88;;;15.77;82.72
82418;BME280;72059;53.734;10.260;2023-09-19T00:14:19;99813.72;;;15.80;82.43
82418;BME280;72059;53.734;10.260;2023-09-19T00:16:48;99811.11;;;15.80;82.37
82418;BME280;72059;53.734;10.260;2023-09-19T00:19:15;99809.39;;;15.79;82.37
82418;BME280;72059;53.734;10.260;2023-09-19T00:21:43;99800.25;;;15.76;82.47
82418;BME280;72059;53.734;10.260;2023-09-19T00:24:12;99814.61;;;15.76;82.45
82418;BME280;72059;53.734;10.260;2023-09-19T00:26:40;99815.03;;;15.76;82.29
82418;BME280;72059;53.734;10.260;2023-09-19T00:29:07;99815.48;;;15.74;82.37
82418;BME280;72059;53.734;10.260;2023-09-19T00:31:35;99825.05;;;15.72;82.48
82418;BME280;72059;53.734;10.260;2023-09-19T00:34:03;99813.30;;;15.70;82.57
82418;BME280;72059;53.734;10.260;2023-09-19T00:36:32;99812.45;;;15.70;82.70
82418;BME280;72059;53.734;10.260;2023-09-19T00:39:00;99826.77;;;15.74;82.56
82418;BME280;72059;53.734;10.260;2023-09-19T00:41:27;99829.38;;;15.73;82.60
82418;BME280;72059;53.734;10.260;2023-09-19T00:43:56;99828.53;;;15.72;82.56
82418;BME280;72059;53.734;10.260;2023-09-19T00:46:24;99832.45;;;15.71;82.69
82418;BME280;72059;53.734;10.260;2023-09-19T00:48:52;99827.66;;;15.72;82.65
82418;BME280;72059;53.734;10.260;2023-09-19T00:51:20;99828.95;;;15.72;82.60
82418;BME280;72059;53.734;10.260;2023-09-19T00:53:48;99823.73;;;15.67;82.69
82418;BME280;72059;53.734;10.260;2023-09-19T00:56:16;99829.84;;;15.63;82.91
82418;BME280;72059;53.734;10.260;2023-09-19T00:58:45;99823.34;;;15.58;83.19
82418;BME280;72059;53.734;10.260;2023-09-19T01:01:14;99825.53;;;15.55;83.32
82418;BME280;72059;53.734;10.260;2023-09-19T01:03:42;99825.08;;;15.54;83.32
82418;BME280;72059;53.734;10.260;2023-09-19T01:06:11;99822.92;;;15.51;83.48
82418;BME280;72059;53.734;10.260;2023-09-19T01:08:38;99834.66;;;15.48;83.72
82418;BME280;72059;53.734;10.260;2023-09-19T01:11:15;99839.02;;;15.44;83.88
82418;BME280;72059;53.734;10.260;2023-09-19T01:13:48;99841.17;;;15.41;83.92
82418;BME280;72059;53.734;10.260;2023-09-19T01:16:26;99848.14;;;15.39;84.23
82418;BME280;72059;53.734;10.260;2023-09-19T01:21:42;99837.69;;;15.49;83.90
82418;BME280;72059;53.734;10.260;2023-09-19T01:27:06;99840.30;;;15.55;83.62
82418;BME280;72059;53.734;10.260;2023-09-19T01:32:06;99845.94;;;15.56;83.55
82418;BME280;72059;53.734;10.260;2023-09-19T01:34:48;99850.73;;;15.52;83.67
82418;BME280;72059;53.734;10.260;2023-09-19T01:37:17;99852.03;;;15.49;83.75
82418;BME280;72059;53.734;10.260;2023-09-19T01:39:51;99858.13;;;15.43;83.92
82418;BME280;72059;53.734;10.260;2023-09-19T01:42:29;99852.94;;;15.40;84.02
82418;BME280;72059;53.734;10.260;2023-09-19T01:45:13;99862.05;;;15.35;84.18
82418;BME280;72059;53.734;10.260;2023-09-19T01:47:55;99855.53;;;15.35;84.24
82418;BME280;72059;53.734;10.260;2023-09-19T01:50:31;99849.89;;;15.33;84.32
82418;BME280;72059;53.734;10.260;2023-09-19T01:53:19;99852.03;;;15.32;84.37
82418;BME280;72059;53.734;10.260;2023-09-19T01:55:43;99859.42;;;15.27;84.38
82418;BME280;72059;53.734;10.260;2023-09-19T02:00:43;99854.23;;;15.21;84.45
82418;BME280;72059;53.734;10.260;2023-09-19T02:03:12;99850.75;;;15.21;84.35
82418;BME280;72059;53.734;10.260;2023-09-19T02:05:40;99859.00;;;15.23;84.16
82418;BME280;72059;53.734;10.260;2023-09-19T02:08:08;99870.72;;;15.22;84.00
82418;BME280;72059;53.734;10.260;2023-09-19T02:10:36;99868.56;;;15.20;83.74
82418;BME280;72059;53.734;10.260;2023-09-19T02:13:04;99876.38;;;15.16;83.63
82418;BME280;72059;53.734;10.260;2023-09-19T02:15:32;99875.95;;;15.15;83.41
82418;BME280;72059;53.734;10.260;2023-09-19T02:18:00;99874.22;;;15.13;83.18
82418;BME280;72059;53.734;10.260;2023-09-19T02:20:29;99878.09;;;15.14;82.68
82418;BME280;72059;53.734;10.260;2023-09-19T02:22:58;99881.59;;;15.16;82.10
82418;BME280;72059;53.734;10.260;2023-09-19T02:25:26;99889.41;;;15.15;81.52
82418;BME280;72059;53.734;10.260;2023-09-19T02:27:54;99891.59;;;15.14;81.05
82418;BME280;72059;53.734;10.260;2023-09-19T02:30:23;99883.74;;;15.06;80.86
82418;BME280;72059;53.734;10.260;2023-09-19T02:32:51;99882.88;;;15.01;81.05
82418;BME280;72059;53.734;10.260;2023-09-19T02:35:18;99901.55;;;15.02;81.04
82418;BME280;72059;53.734;10.260;2023-09-19T02:37:47;99905.44;;;14.99;80.84
82418;BME280;72059;53.734;10.260;2023-09-19T02:40:14;99901.98;;;14.97;80.58
82418;BME280;72059;53.734;10.260;2023-09-19T02:42:52;99898.95;;;14.96;80.43
82418;BME280;72059;53.734;10.260;2023-09-19T02:45:16;99900.68;;;14.97;80.27
82418;BME280;72059;53.734;10.260;2023-09-19T02:47:45;99902.00;;;15.00;80.20
82418;BME280;72059;53.734;10.260;2023-09-19T02:50:13;99905.88;;;14.94;80.45
82418;BME280;72059;53.734;10.260;2023-09-19T02:52:43;99905.42;;;14.86;80.92
82418;BME280;72059;53.734;10.260;2023-09-19T02:55:12;99912.38;;;14.81;81.31
82418;BME280;72059;53.734;10.260;2023-09-19T02:57:41;99902.80;;;14.77;81.67
82418;BME280;72059;53.734;10.260;2023-09-19T03:00:10;99908.86;;;14.76;81.96
82418;BME280;72059;53.734;10.260;2023-09-19T03:02:38;99910.16;;;14.76;82.09
82418;BME280;72059;53.734;10.260;2023-09-19T03:05:08;99914.06;;;14.76;82.17
82418;BME280;72059;53.734;10.260;2023-09-19T03:07:37;99912.76;;;14.74;82.37
82418;BME280;72059;53.734;10.260;2023-09-19T03:10:06;99912.30;;;14.69;82.67
82418;BME280;72059;53.734;10.260;2023-09-19T03:12:34;99914.46;;;14.64;83.07
82418;BME280;72059;53.734;10.260;2023-09-19T03:15:02;99911.00;;;14.67;83.17
82418;BME280;72059;53.734;10.260;2023-09-19T03:17:30;99908.81;;;14.68;83.33
82418;BME280;72059;53.734;10.260;2023-09-19T03:19:58;99906.64;;;14.69;83.29
82418;BME280;72059;53.734;10.260;2023-09-19T03:22:27;99906.23;;;14.71;83.43
82418;BME280;72059;53.734;10.260;2023-09-19T03:24:55;99914.48;;;14.74;83.26
82418;BME280;72059;53.734;10.260;2023-09-19T03:27:22;99903.66;;;14.77;83.23
82418;BME280;72059;53.734;10.260;2023-09-19T03:29:50;99910.19;;;14.82;83.02
82418;BME280;72059;53.734;10.260;2023-09-19T03:32:17;99910.21;;;14.87;82.26
82418;BME280;72059;53.734;10.260;2023-09-19T03:34:45;99908.05;;;14.93;81.91
82418;BME280;72059;53.734;10.260;2023-09-19T03:37:14;99906.30;;;14.95;81.32
82418;BME280;72059;53.734;10.260;2023-09-19T03:39:41;99913.28;;;14.96;80.85
82418;BME280;72059;53.734;10.260;2023-09-19T03:42:09;99911.52;;;14.96;80.41
82418;BME280;72059;53.734;10.260;2023-09-19T03:44:36;99911.53;;;14.98;80.39
82418;BME280;72059;53.734;10.260;2023-09-19T03:47:04;99911.95;;;14.99;79.93
82418;BME280;72059;53.734;10.260;2023-09-19T03:49:33;99920.22;;;14.97;79.83
82418;BME280;72059;53.734;10.260;2023-09-19T03:52:00;99924.55;;;14.95;79.62
82418;BME280;72059;53.734;10.260;2023-09-19T03:54:28;99924.11;;;14.92;79.35
82418;BME280;72059;53.734;10.260;2023-09-19T03:56:55;99925.40;;;14.89;79.21
82418;BME280;72059;53.734;10.260;2023-09-19T03:59:22;99928.42;;;14.82;79.54
82418;BME280;72059;53.734;10.260;2023-09-19T04:01:50;99933.61;;;14.76;79.67
82418;BME280;72059;53.734;10.260;2023-09-19T04:04:19;99930.99;;;14.74;79.71
82418;BME280;72059;53.734;10.260;2023-09-19T04:06:46;99929.66;;;14.70;79.38
82418;BME280;72059;53.734;10.260;2023-09-19T04:09:14;99934.88;;;14.71;79.19
82418;BME280;72059;53.734;10.260;2023-09-19T04:11:41;99943.55;;;14.67;78.90
82418;BME280;72059;53.734;10.260;2023-09-19T04:14:09;99940.48;;;14.61;78.32
82418;BME280;72059;53.734;10.260;2023-09-19T04:16:36;99947.44;;;14.62;78.30
82418;BME280;72059;53.734;10.260;2023-09-19T04:19:05;99941.80;;;14.68;78.10
82418;BME280;72059;53.734;10.260;2023-09-19T04:21:32;99944.45;;;14.75;77.97
82418;BME280;72059;53.734;10.260;2023-09-19T04:24:00;99954.03;;;14.78;77.95
82418;BME280;72059;53.734;10.260;2023-09-19T04:26:27;99962.28;;;14.79;78.01
82418;BME280;72059;53.734;10.260;2023-09-19T04:28:54;99961.86;;;14.80;77.56
82418;BME280;72059;53.734;10.260;2023-09-19T04:31:22;99957.91;;;14.76;77.06
82418;BME280;72059;53.734;10.260;2023-09-19T04:33:49;99970.91;;;14.75;76.68
82418;BME280;72059;53.734;10.260;2023-09-19T04:36:17;99972.20;;;14.72;75.82
82418;BME280;72059;53.734;10.260;2023-09-19T04:38:45;99976.97;;;14.64;75.85
82418;BME280;72059;53.734;10.260;2023-09-19T04:41:12;99981.70;;;14.56;75.75
82418;BME280;72059;53.734;10.260;2023-09-19T04:43:41;99986.42;;;14.47;75.32
82418;BME280;72059;53.734;10.260;2023-09-19T04:46:08;99992.44;;;14.38;75.68
82418;BME280;72059;53.734;10.260;2023-09-19T04:48:36;99994.13;;;14.30;75.55
82418;BME280;72059;53.734;10.260;2023-09-19T04:51:04;99996.69;;;14.25;75.68
82418;BME280;72059;53.734;10.260;2023-09-19T04:53:31;100005.78;;;14.19;75.96
82418;BME280;72059;53.734;10.260;2023-09-19T04:55:59;100010.91;;;14.09;76.39
82418;BME280;72059;53.734;10.260;2023-09-19T04:58:26;100018.70;;;14.05;76.17
82418;BME280;72059;53.734;10.260;2023-09-19T05:00:54;100013.45;;;14.00;76.22
82418;BME280;72059;53.734;10.260;2023-09-19T05:03:23;100025.12;;;13.97;76.15
82418;BME280;72059;53.734;10.260;2023-09-19T05:05:50;100023.81;;;13.92;76.02
82418;BME280;72059;53.734;10.260;2023-09-19T05:08:17;100032.88;;;13.89;76.00
82418;BME280;72059;53.734;10.260;2023-09-19T05:10:45;100028.94;;;13.84;75.74
82418;BME280;72059;53.734;10.260;2023-09-19T05:13:12;100028.89;;;13.80;75.79
82418;BME280;72059;53.734;10.260;2023-09-19T05:15:40;100034.52;;;13.78;75.80
82418;BME280;72059;53.734;10.260;2023-09-19T05:18:07;100034.07;;;13.75;75.61
82418;BME280;72059;53.734;10.260;2023-09-19T05:20:35;100041.41;;;13.74;75.68
82418;BME280;72059;53.734;10.260;2023-09-19T05:23:06;100034.90;;;13.71;75.73
82418;BME280;72059;53.734;10.260;2023-09-19T05:25:38;100030.56;;;13.73;75.60
82418;BME280;72059;53.734;10.260;2023-09-19T05:28:07;100036.23;;;13.77;75.43
82418;BME280;72059;53.734;10.260;2023-09-19T05:30:35;100049.24;;;13.77;75.42
82418;BME280;72059;53.734;10.260;2023-09-19T05:33:05;100042.69;;;13.72;75.51
82418;BME280;72059;53.734;10.260;2023-09-19T05:35:33;100041.77;;;13.66;75.76
82418;BME280;72059;53.734;10.260;2023-09-19T05:38:02;100053.42;;;13.59;76.03
82418;BME280;72059;53.734;10.260;2023-09-19T05:40:31;100052.48;;;13.54;76.40
82418;BME280;72059;53.734;10.260;2023-09-19T05:42:59;100038.48;;;13.44;76.11
82418;BME280;72059;53.734;10.260;2023-09-19T05:45:26;100043.73;;;13.47;76.27
82418;BME280;72059;53.734;10.260;2023-09-19T05:47:54;100049.77;;;13.45;76.49
82418;BME280;72059;53.734;10.260;2023-09-19T05:50:23;100054.52;;;13.42;76.72
82418;BME280;72059;53.734;10.260;2023-09-19T05:52:54;100045.40;;;13.41;76.76
82418;BME280;72059;53.734;10.260;2023-09-19T05:55:22;100053.20;;;13.41;76.94
82418;BME280;72059;53.734;10.260;2023-09-19T05:57:53;100059.25;;;13.41;76.76
82418;BME280;72059;53.734;10.260;2023-09-19T06:00:22;100063.16;;;13.43;76.62
82418;BME280;72059;53.734;10.260;2023-09-19T06:02:54;100058.08;;;13.49;76.33
82418;BME280;72059;53.734;10.260;2023-09-19T06:05:24;100068.06;;;13.53;76.20
82418;BME280;72059;53.734;10.260;2023-09-19T06:07:53;100065.95;;;13.55;76.27
82418;BME280;72059;53.734;10.260;2023-09-19T06:10:21;100079.86;;;13.60;76.14
82418;BME280;72059;53.734;10.260;2023-09-19T06:12:48;100070.83;;;13.68;76.06
82418;BME280;72059;53.734;10.260;2023-09-19T06:15:16;100069.66;;;13.79;75.60
82418;BME280;72059;53.734;10.260;2023-09-19T06:17:50;100059.84;;;13.97;75.18
82418;BME280;72059;53.734;10.260;2023-09-19T06:20:18;100063.03;;;14.17;74.25
82418;BME280;72059;53.734;10.260;2023-09-19T06:22:46;100061.42;;;14.36;73.70
82418;BME280;72059;53.734;10.260;2023-09-19T06:25:15;100065.88;;;14.51;73.05
82418;BME280;72059;53.734;10.260;2023-09-19T06:27:44;100064.66;;;14.65;72.76
82418;BME280;72059;53.734;10.260;2023-09-19T06:30:12;100078.61;;;14.75;72.44
82418;BME280;72059;53.734;10.260;2023-09-19T06:32:41;100077.84;;;14.86;71.75
82418;BME280;72059;53.734;10.260;2023-09-19T06:35:13;100080.01;;;14.89;71.58
82418;BME280;72059;53.734;10.260;2023-09-19T06:37:41;100085.66;;;14.87;71.02
82418;BME280;72059;53.734;10.260;2023-09-19T06:40:11;100078.72;;;14.91;71.32
82418;BME280;72059;53.734;10.260;2023-09-19T06:42:46;100074.37;;;14.93;71.34
82418;BME280;72059;53.734;10.260;2023-09-19T06:45:14;100080.02;;;14.91;70.92
82418;BME280;72059;53.734;10.260;2023-09-19T06:47:45;100086.95;;;14.90;70.61
82418;BME280;72059;53.734;10.260;2023-09-19T06:50:14;100084.39;;;14.97;70.75
82418;BME280;72059;53.734;10.260;2023-09-19T06:52:43;100091.34;;;14.98;70.24
82418;BME280;72059;53.734;10.260;2023-09-19T06:55:11;100085.27;;;15.00;70.19
82418;BME280;72059;53.734;10.260;2023-09-19T06:57:39;100080.98;;;15.07;69.77
82418;BME280;72059;53.734;10.260;2023-09-19T07:00:14;100082.28;;;15.13;69.53
82418;BME280;72059;53.734;10.260;2023-09-19T07:02:43;100088.84;;;15.20;69.50
82418;BME280;72059;53.734;10.260;2023-09-19T07:05:10;100091.02;;;15.23;68.77
82418;BME280;72059;53.734;10.260;2023-09-19T07:07:38;100091.48;;;15.31;68.92
82418;BME280;72059;53.734;10.260;2023-09-19T07:10:06;100108.02;;;15.34;68.77
82418;BME280;72059;53.734;10.260;2023-09-19T07:12:35;100114.99;;;15.38;68.29
82418;BME280;72059;53.734;10.260;2023-09-19T07:15:03;100093.69;;;15.34;68.10
82418;BME280;72059;53.734;10.260;2023-09-19T07:17:32;100118.00;;;15.35;68.29
82418;BME280;72059;53.734;10.260;2023-09-19T07:19:59;100121.49;;;15.41;68.40
82418;BME280;72059;53.734;10.260;2023-09-19T07:22:27;100118.03;;;15.39;68.48
82418;BME280;72059;53.734;10.260;2023-09-19T07:24:54;100121.08;;;15.42;68.72
82418;BME280;72059;53.734;10.260;2023-09-19T07:27:22;100131.14;;;15.58;68.63
82418;BME280;72059;53.734;10.260;2023-09-19T07:29:49;100130.73;;;15.70;68.54
82418;BME280;72059;53.734;10.260;2023-09-19T07:32:16;100123.78;;;15.83;67.94
82418;BME280;72059;53.734;10.260;2023-09-19T07:34:44;100133.37;;;15.82;67.61
82418;BME280;72059;53.734;10.260;2023-09-19T07:37:11;100135.53;;;15.84;68.16
82418;BME280;72059;53.734;10.260;2023-09-19T07:39:39;100135.11;;;15.94;68.00
82418;BME280;72059;53.734;10.260;2023-09-19T07:42:07;100144.69;;;15.92;67.86
82418;BME280;72059;53.734;10.260;2023-09-19T07:44:36;100142.97;;;15.92;67.57
82418;BME280;72059;53.734;10.260;2023-09-19T07:47:04;100152.95;;;15.94;67.80
82418;BME280;72059;53.734;10.260;2023-09-19T07:49:31;100142.57;;;16.01;67.99
82418;BME280;72059;53.734;10.260;2023-09-19T07:51:59;100140.83;;;16.08;67.87
82418;BME280;72059;53.734;10.260;2023-09-19T07:54:26;100136.47;;;15.99;67.39
82418;BME280;72059;53.734;10.260;2023-09-19T07:56:56;100148.66;;;15.98;67.81
82418;BME280;72059;53.734;10.260;2023-09-19T07:59:24;100157.35;;;16.00;68.06
82418;BME280;72059;53.734;10.260;2023-09-19T08:01:51;100150.78;;;15.89;68.38
82418;BME280;72059;53.734;10.260;2023-09-19T08:04:19;100141.25;;;15.96;68.19
82418;BME280;72059;53.734;10.260;2023-09-19T08:06:46;100157.72;;;15.87;68.06
82418;BME280;72059;53.734;10.260;2023-09-19T08:09:13;100151.19;;;15.78;68.54
82418;BME280;72059;53.734;10.260;2023-09-19T08:11:43;100137.27;;;15.80;68.67
82418;BME280;72059;53.734;10.260;2023-09-19T08:14:11;100133.38;;;15.85;68.46
82418;BME280;72059;53.734;10.260;2023-09-19T08:16:40;100141.20;;;15.91;67.39
82418;BME280;72059;53.734;10.260;2023-09-19T08:19:10;100144.67;;;15.86;66.11
82418;BME280;72059;53.734;10.260;2023-09-19T08:21:37;100152.95;;;15.91;66.57
82418;BME280;72059;53.734;10.260;2023-09-19T08:24:05;100148.66;;;15.97;64.96
82418;BME280;72059;53.734;10.260;2023-09-19T08:26:32;100152.99;;;16.04;64.82
82418;BME280;72059;53.734;10.260;2023-09-19T08:29:00;100152.13;;;16.02;64.37
82418;BME280;72059;53.734;10.260;2023-09-19T08:31:29;100153.88;;;16.04;64.05
82418;BME280;72059;53.734;10.260;2023-09-19T08:33:56;100148.23;;;16.08;64.16
82418;BME280;72059;53.734;10.260;2023-09-19T08:36:24;100150.86;;;16.21;64.00
82418;BME280;72059;53.734;10.260;2023-09-19T08:38:51;100149.54;;;16.27;64.16
82418;BME280;72059;53.734;10.260;2023-09-19T08:41:19;100155.64;;;16.40;64.38
82418;BME280;72059;53.734;10.260;2023-09-19T08:43:46;100162.19;;;16.48;64.45
82418;BME280;72059;53.734;10.260;2023-09-19T08:46:17;100166.11;;;16.51;64.76
82418;BME280;72059;53.734;10.260;2023-09-19T08:49:05;100159.55;;;16.58;64.85
82418;BME280;72059;53.734;10.260;2023-09-19T08:51:45;100160.00;;;16.49;65.13
82418;BME280;72059;53.734;10.260;2023-09-19T08:54:24;100157.83;;;16.42;65.82
82418;BME280;72059;53.734;10.260;2023-09-19T08:56:56;100157.38;;;16.31;66.09
82418;BME280;72059;53.734;10.260;2023-09-19T08:59:25;100157.38;;;16.30;66.48
82418;BME280;72059;53.734;10.260;2023-09-19T09:01:55;100153.91;;;16.29;66.40
82418;BME280;72059;53.734;10.260;2023-09-19T09:04:23;100158.70;;;16.24;66.74
82418;BME280;72059;53.734;10.260;2023-09-19T09:06:53;100149.11;;;16.24;66.60
82418;BME280;72059;53.734;10.260;2023-09-19T09:09:21;100162.62;;;16.24;66.68
82418;BME280;72059;53.734;10.260;2023-09-19T09:11:49;100162.61;;;16.21;66.84
82418;BME280;72059;53.734;10.260;2023-09-19T09:14:20;100166.08;;;16.26;67.07
82418;BME280;72059;53.734;10.260;2023-09-19T09:16:48;100174.80;;;16.37;66.67
82418;BME280;72059;53.734;10.260;2023-09-19T09:19:15;100178.28;;;16.47;66.32
82418;BME280;72059;53.734;10.260;2023-09-19T09:21:45;100189.16;;;16.50;65.33
82418;BME280;72059;53.734;10.260;2023-09-19T09:24:29;100178.27;;;16.56;65.26
82418;BME280;72059;53.734;10.260;2023-09-19T09:26:57;100182.22;;;16.55;64.66
82418;BME280;72059;53.734;10.260;2023-09-19T09:29:46;100179.14;;;16.55;64.69
82418;BME280;72059;53.734;10.260;2023-09-19T09:32:24;100177.85;;;16.44;64.81
82418;BME280;72059;53.734;10.260;2023-09-19T09:34:59;100188.73;;;16.52;64.82
82418;BME280;72059;53.734;10.260;2023-09-19T09:37:28;100181.77;;;16.58;64.35
82418;BME280;72059;53.734;10.260;2023-09-19T09:40:01;100191.33;;;16.58;63.94
82418;BME280;72059;53.734;10.260;2023-09-19T09:42:42;100191.34;;;16.63;63.71
82418;BME280;72059;53.734;10.260;2023-09-19T09:47:49;100193.07;;;16.90;63.20
82418;BME280;72059;53.734;10.260;2023-09-19T09:50:26;100188.23;;;17.04;62.11
82418;BME280;72059;53.734;10.260;2023-09-19T09:52:59;100194.34;;;17.12;62.16
82418;BME280;72059;53.734;10.260;2023-09-19T09:55:28;100196.96;;;17.18;62.02
82418;BME280;72059;53.734;10.260;2023-09-19T09:58:17;100189.50;;;17.30;61.67
82418;BME280;72059;53.734;10.260;2023-09-19T10:00:54;100180.27;;;17.54;61.43
82418;BME280;72059;53.734;10.260;2023-09-19T10:03:35;100186.73;;;17.74;60.58
82418;BME280;72059;53.734;10.260;2023-09-19T10:06:01;100179.28;;;17.80;59.38
82418;BME280;72059;53.734;10.260;2023-09-19T10:08:30;100185.36;;;17.85;58.86
82418;BME280;72059;53.734;10.260;2023-09-19T10:10:58;100196.25;;;17.86;58.83
82418;BME280;72059;53.734;10.260;2023-09-19T10:13:29;100200.50;;;18.12;58.70
82418;BME280;72059;53.734;10.260;2023-09-19T10:15:59;100193.95;;;18.14;58.09
82418;BME280;72059;53.734;10.260;2023-09-19T10:18:30;100195.70;;;18.11;57.12
82418;BME280;72059;53.734;10.260;2023-09-19T10:20:59;100188.77;;;17.99;57.75
82418;BME280;72059;53.734;10.260;2023-09-19T10:23:31;100192.17;;;18.16;57.63
82418;BME280;72059;53.734;10.260;2023-09-19T10:26:01;100192.04;;;18.36;56.58
82418;BME280;72059;53.734;10.260;2023-09-19T10:28:30;100192.62;;;18.18;55.78
82418;BME280;72059;53.734;10.260;2023-09-19T10:31:00;100194.39;;;18.08;56.73
82418;BME280;72059;53.734;10.260;2023-09-19T10:33:34;100197.92;;;18.03;56.09
82418;BME280;72059;53.734;10.260;2023-09-19T10:36:02;100202.70;;;18.02;55.45
82418;BME280;72059;53.734;10.260;2023-09-19T10:38:31;100190.93;;;18.00;56.11
82418;BME280;72059;53.734;10.260;2023-09-19T10:41:00;100193.97;;;18.10;55.82
82418;BME280;72059;53.734;10.260;2023-09-19T10:43:33;100191.73;;;18.18;55.43
82418;BME280;72059;53.734;10.260;2023-09-19T10:46:02;100192.63;;;18.17;55.43
82418;BME280;72059;53.734;10.260;2023-09-19T10:48:31;100191.66;;;18.27;55.17
82418;BME280;72059;53.734;10.260;2023-09-19T10:53:44;100190.12;;;18.57;53.56
82418;BME280;72059;53.734;10.260;2023-09-19T10:56:02;100178.23;;;18.71;52.48
82418;BME280;72059;53.734;10.260;2023-09-19T10:58:32;100184.77;;;18.72;51.82
82418;BME280;72059;53.734;10.260;2023-09-19T11:01:05;100183.37;;;18.80;51.04
82418;BME280;72059;53.734;10.260;2023-09-19T11:03:34;100186.71;;;18.98;50.96
82418;BME280;72059;53.734;10.260;2023-09-19T11:06:09;100193.22;;;18.99;50.58
82418;BME280;72059;53.734;10.260;2023-09-19T11:08:55;100196.84;;;18.89;51.68
82418;BME280;72059;53.734;10.260;2023-09-19T11:11:48;100194.39;;;18.70;51.76
82418;BME280;72059;53.734;10.260;2023-09-19T11:30:49;100196.84;;;18.89;51.64
82418;BME280;72059;53.734;10.260;2023-09-19T11:36:08;100189.95;;;18.77;52.15
82418;BME280;72059;53.734;10.260;2023-09-19T11:46:54;100194.75;;;18.25;54.02
82418;BME280;72059;53.734;10.260;2023-09-19T11:49:32;100193.02;;;18.24;54.55
82418;BME280;72059;53.734;10.260;2023-09-19T11:52:02;100185.39;;;18.47;54.57
82418;BME280;72059;53.734;10.260;2023-09-19T11:54:31;100184.31;;;18.73;54.05
82418;BME280;72059;53.734;10.260;2023-09-19T11:57:00;100178.73;;;19.12;53.09
82418;BME280;72059;53.734;10.260;2023-09-19T11:59:30;100179.23;;;19.42;52.00
82418;BME280;72059;53.734;10.260;2023-09-19T12:02:06;100187.91;;;19.50;51.38
82418;BME280;72059;53.734;10.260;2023-09-19T12:04:37;100181.82;;;19.45;50.79
82418;BME280;72059;53.734;10.260;2023-09-19T12:07:09;100185.73;;;19.10;50.93
82418;BME280;72059;53.734;10.260;2023-09-19T12:09:43;100186.20;;;19.05;51.35
82418;BME280;72059;53.734;10.260;2023-09-19T12:12:20;100180.95;;;19.05;51.75
82418;BME280;72059;53.734;10.260;2023-09-19T12:14:50;100175.34;;;18.97;51.46
82418;BME280;72059;53.734;10.260;2023-09-19T12:17:18;100176.60;;;19.04;50.57
82418;BME280;72059;53.734;10.260;2023-09-19T12:19:51;100186.23;;;19.00;50.26
82418;BME280;72059;53.734;10.260;2023-09-19T12:22:19;100180.97;;;19.06;50.72
82418;BME280;72059;53.734;10.260;2023-09-19T12:24:51;100177.44;;;19.06;50.49
82418;BME280;72059;53.734;10.260;2023-09-19T12:27:20;100174.17;;;19.26;50.22
82418;BME280;72059;53.734;10.260;2023-09-19T12:29:49;100184.09;;;19.38;50.09
82418;BME280;72059;53.734;10.260;2023-09-19T12:32:17;100168.98;;;19.59;49.56
82418;BME280;72059;53.734;10.260;2023-09-19T12:34:52;100176.33;;;19.65;49.54
82418;BME280;72059;53.734;10.260;2023-09-19T12:37:20;100168.60;;;19.87;49.71
82418;BME280;72059;53.734;10.260;2023-09-19T12:39:50;100183.31;;;20.00;49.45
82418;BME280;72059;53.734;10.260;2023-09-19T12:42:24;100187.28;;;19.97;48.80
82418;BME280;72059;53.734;10.260;2023-09-19T12:44:53;100186.78;;;20.04;48.47
82418;BME280;72059;53.734;10.260;2023-09-19T12:47:24;100187.17;;;20.07;47.96
82418;BME280;72059;53.734;10.260;2023-09-19T12:52:44;100182.97;;;19.93;47.42
82418;BME280;72059;53.734;10.260;2023-09-19T12:55:27;100172.89;;;19.62;48.36
82418;BME280;72059;53.734;10.260;2023-09-19T12:58:13;100177.47;;;19.44;48.38
82418;BME280;72059;53.734;10.260;2023-09-19T13:00:46;100177.52;;;19.39;48.16
82418;BME280;72059;53.734;10.260;2023-09-19T13:03:18;100162.52;;;19.49;49.08
82418;BME280;72059;53.734;10.260;2023-09-19T13:05:56;100170.58;;;19.69;49.10
82418;BME280;72059;53.734;10.260;2023-09-19T13:08:30;100166.48;;;19.83;47.55
82418;BME280;72059;53.734;10.260;2023-09-19T13:11:13;100162.79;;;19.95;47.43
82418;BME280;72059;53.734;10.260;2023-09-19T13:13:48;100164.39;;;20.09;47.24
82418;BME280;72059;53.734;10.260;2023-09-19T13:16:17;100161.02;;;19.97;47.25
82418;BME280;72059;53.734;10.260;2023-09-19T13:18:53;100164.36;;;19.76;47.41
82418;BME280;72059;53.734;10.260;2023-09-19T13:21:35;100158.02;;;19.59;48.16
82418;BME280;72059;53.734;10.260;2023-09-19T13:24:23;100158.50;;;19.57;48.94
82418;BME280;72059;53.734;10.260;2023-09-19T13:26:53;100148.04;;;19.54;48.42
82418;BME280;72059;53.734;10.260;2023-09-19T13:29:20;100145.93;;;19.49;48.57
82418;BME280;72059;53.734;10.260;2023-09-19T13:31:48;100138.68;;;19.67;48.03
82418;BME280;72059;53.734;10.260;2023-09-19T13:34:16;100130.75;;;19.71;47.68
82418;BME280;72059;53.734;10.260;2023-09-19T13:36:44;100133.02;;;19.65;47.60
82418;BME280;72059;53.734;10.260;2023-09-19T13:39:15;100136.47;;;19.68;47.91
82418;BME280;72059;53.734;10.260;2023-09-19T13:41:45;100123.41;;;19.64;47.61
82418;BME280;72059;53.734;10.260;2023-09-19T13:44:12;100133.02;;;19.65;47.07